Congers, New York
Current Conditions -  °F | °C
As of 12:56 PM on Friday 28 Nov 2014 (Local Time) from KHPN Reporting Station
Broken Clouds Broken Clouds  
Wind Chill: 25°   Ceiling: 3700
Heat Index: 35°   Visibility: 10mi
Dew Point: 21°   Wind: 16mph
Humidity: 57%   Direction: 310°NW
Pressure: 30.11"   Gusts: 22mph
Location:  41.15°N, 73.95°W
Report Text: KHPN 281756Z 31014G19KT 10SM BKN037 02/M06 A3011 RMK AO2 SLP204 T00171061 10017 21017 58008
Loading
Personal Weather Stations






























Interactive Weather Map New forecast layout! Learn more

10-Day Weather Forecast

Advertisements
Track Severe Weather on mobile